sensor_id;sensor_type;location;lat;lon;timestamp;temperature;humidity
13148;DHT22;6639;50.956;4.242;2022-07-29T00:00:01;27.60;76.10
13148;DHT22;6639;50.956;4.242;2022-07-29T00:02:28;27.60;75.90
13148;DHT22;6639;50.956;4.242;2022-07-29T00:04:54;27.60;76.80
13148;DHT22;6639;50.956;4.242;2022-07-29T00:07:22;27.60;77.00
13148;DHT22;6639;50.956;4.242;2022-07-29T00:09:50;27.60;76.70
13148;DHT22;6639;50.956;4.242;2022-07-29T00:12:17;27.50;76.50
13148;DHT22;6639;50.956;4.242;2022-07-29T00:14:44;27.50;76.60
13148;DHT22;6639;50.956;4.242;2022-07-29T00:17:11;27.60;76.90
13148;DHT22;6639;50.956;4.242;2022-07-29T00:19:38;27.50;77.20
13148;DHT22;6639;50.956;4.242;2022-07-29T00:22:05;27.50;77.00
13148;DHT22;6639;50.956;4.242;2022-07-29T00:24:31;27.40;77.30
13148;DHT22;6639;50.956;4.242;2022-07-29T00:27:00;27.30;75.80
13148;DHT22;6639;50.956;4.242;2022-07-29T00:29:26;27.10;75.90
13148;DHT22;6639;50.956;4.242;2022-07-29T00:31:53;27.10;75.20
13148;DHT22;6639;50.956;4.242;2022-07-29T00:34:20;27.10;75.30
13148;DHT22;6639;50.956;4.242;2022-07-29T00:37:04;27.20;75.50
13148;DHT22;6639;50.956;4.242;2022-07-29T00:39:31;27.00;75.20
13148;DHT22;6639;50.956;4.242;2022-07-29T00:42:02;27.00;74.90
13148;DHT22;6639;50.956;4.242;2022-07-29T00:44:29;27.10;74.60
13148;DHT22;6639;50.956;4.242;2022-07-29T00:46:56;27.10;75.40
13148;DHT22;6639;50.956;4.242;2022-07-29T00:49:23;27.20;74.70
13148;DHT22;6639;50.956;4.242;2022-07-29T00:51:50;27.20;75.00
13148;DHT22;6639;50.956;4.242;2022-07-29T00:54:17;27.30;75.30
13148;DHT22;6639;50.956;4.242;2022-07-29T00:56:44;27.30;74.80
13148;DHT22;6639;50.956;4.242;2022-07-29T00:59:12;27.30;74.60
13148;DHT22;6639;50.956;4.242;2022-07-29T01:01:39;27.30;74.50
13148;DHT22;6639;50.956;4.242;2022-07-29T01:04:06;27.30;75.10
13148;DHT22;6639;50.956;4.242;2022-07-29T01:06:34;27.30;75.40
13148;DHT22;6639;50.956;4.242;2022-07-29T01:09:01;27.20;75.70
13148;DHT22;6639;50.956;4.242;2022-07-29T01:11:28;27.20;75.70
13148;DHT22;6639;50.956;4.242;2022-07-29T01:13:56;27.20;76.10
13148;DHT22;6639;50.956;4.242;2022-07-29T01:16:30;27.30;76.20
13148;DHT22;6639;50.956;4.242;2022-07-29T01:19:06;27.20;76.20
13148;DHT22;6639;50.956;4.242;2022-07-29T01:21:48;27.10;76.80
13148;DHT22;6639;50.956;4.242;2022-07-29T01:24:49;27.20;75.80
13148;DHT22;6639;50.956;4.242;2022-07-29T01:27:37;27.10;76.00
13148;DHT22;6639;50.956;4.242;2022-07-29T01:30:07;27.10;75.80
13148;DHT22;6639;50.956;4.242;2022-07-29T01:32:37;27.20;75.90
13148;DHT22;6639;50.956;4.242;2022-07-29T01:35:07;27.10;75.90
13148;DHT22;6639;50.956;4.242;2022-07-29T01:37:43;27.10;76.00
13148;DHT22;6639;50.956;4.242;2022-07-29T01:40:18;27.10;75.90
13148;DHT22;6639;50.956;4.242;2022-07-29T01:42:50;27.00;75.50
13148;DHT22;6639;50.956;4.242;2022-07-29T01:45:23;26.90;75.30
13148;DHT22;6639;50.956;4.242;2022-07-29T01:47:58;26.80;75.30
13148;DHT22;6639;50.956;4.242;2022-07-29T01:50:33;26.70;76.50
13148;DHT22;6639;50.956;4.242;2022-07-29T01:53:03;26.70;77.40
13148;DHT22;6639;50.956;4.242;2022-07-29T01:55:35;26.70;76.90
13148;DHT22;6639;50.956;4.242;2022-07-29T01:58:04;26.80;77.00
13148;DHT22;6639;50.956;4.242;2022-07-29T02:00:33;26.70;77.00
13148;DHT22;6639;50.956;4.242;2022-07-29T02:03:05;26.70;76.80
13148;DHT22;6639;50.956;4.242;2022-07-29T02:05:35;26.70;76.10
13148;DHT22;6639;50.956;4.242;2022-07-29T02:08:04;26.70;76.20
13148;DHT22;6639;50.956;4.242;2022-07-29T02:10:33;26.50;76.10
13148;DHT22;6639;50.956;4.242;2022-07-29T02:13:02;26.50;76.20
13148;DHT22;6639;50.956;4.242;2022-07-29T02:15:33;26.50;76.30
13148;DHT22;6639;50.956;4.242;2022-07-29T02:18:04;26.50;76.60
13148;DHT22;6639;50.956;4.242;2022-07-29T02:20:31;26.40;77.00
13148;DHT22;6639;50.956;4.242;2022-07-29T02:23:00;26.40;76.80
13148;DHT22;6639;50.956;4.242;2022-07-29T02:25:28;26.30;76.80
13148;DHT22;6639;50.956;4.242;2022-07-29T02:27:55;26.30;76.70
13148;DHT22;6639;50.956;4.242;2022-07-29T02:30:24;26.30;76.80
13148;DHT22;6639;50.956;4.242;2022-07-29T02:32:53;26.20;77.60
13148;DHT22;6639;50.956;4.242;2022-07-29T02:35:21;26.10;77.40
13148;DHT22;6639;50.956;4.242;2022-07-29T02:37:49;26.10;77.50
13148;DHT22;6639;50.956;4.242;2022-07-29T02:40:31;26.00;77.50
13148;DHT22;6639;50.956;4.242;2022-07-29T02:42:59;26.00;77.50
13148;DHT22;6639;50.956;4.242;2022-07-29T02:45:27;26.00;77.10
13148;DHT22;6639;50.956;4.242;2022-07-29T02:47:58;26.00;77.40
13148;DHT22;6639;50.956;4.242;2022-07-29T02:50:32;25.90;77.70
13148;DHT22;6639;50.956;4.242;2022-07-29T02:53:12;26.00;77.50
13148;DHT22;6639;50.956;4.242;2022-07-29T02:55:44;26.00;77.50
13148;DHT22;6639;50.956;4.242;2022-07-29T02:58:17;25.90;77.30
13148;DHT22;6639;50.956;4.242;2022-07-29T03:00:47;25.70;77.10
13148;DHT22;6639;50.956;4.242;2022-07-29T03:03:18;25.70;77.20
13148;DHT22;6639;50.956;4.242;2022-07-29T03:05:45;25.50;77.80
13148;DHT22;6639;50.956;4.242;2022-07-29T03:08:12;25.40;77.60
13148;DHT22;6639;50.956;4.242;2022-07-29T03:10:43;25.50;77.80
13148;DHT22;6639;50.956;4.242;2022-07-29T03:13:11;25.50;78.00
13148;DHT22;6639;50.956;4.242;2022-07-29T03:15:39;25.30;78.30
13148;DHT22;6639;50.956;4.242;2022-07-29T03:18:06;25.20;78.30
13148;DHT22;6639;50.956;4.242;2022-07-29T03:20:35;25.20;78.40
13148;DHT22;6639;50.956;4.242;2022-07-29T03:23:03;25.40;78.70
13148;DHT22;6639;50.956;4.242;2022-07-29T03:25:30;25.20;78.70
13148;DHT22;6639;50.956;4.242;2022-07-29T03:27:57;25.30;79.10
13148;DHT22;6639;50.956;4.242;2022-07-29T03:30:24;25.20;78.90
13148;DHT22;6639;50.956;4.242;2022-07-29T03:32:53;25.30;79.00
13148;DHT22;6639;50.956;4.242;2022-07-29T03:35:20;25.10;79.60
13148;DHT22;6639;50.956;4.242;2022-07-29T03:37:48;24.90;79.50
13148;DHT22;6639;50.956;4.242;2022-07-29T03:40:22;24.80;79.60
13148;DHT22;6639;50.956;4.242;2022-07-29T03:42:50;24.80;79.40
13148;DHT22;6639;50.956;4.242;2022-07-29T03:45:19;24.80;79.60
13148;DHT22;6639;50.956;4.242;2022-07-29T03:47:51;24.80;79.60
13148;DHT22;6639;50.956;4.242;2022-07-29T03:50:20;24.80;79.80
13148;DHT22;6639;50.956;4.242;2022-07-29T03:52:49;24.80;79.70
13148;DHT22;6639;50.956;4.242;2022-07-29T03:55:16;24.80;79.60
13148;DHT22;6639;50.956;4.242;2022-07-29T03:57:44;24.70;80.70
13148;DHT22;6639;50.956;4.242;2022-07-29T04:00:12;24.70;80.00
13148;DHT22;6639;50.956;4.242;2022-07-29T04:02:41;24.60;80.50
13148;DHT22;6639;50.956;4.242;2022-07-29T04:05:12;24.60;80.60
13148;DHT22;6639;50.956;4.242;2022-07-29T04:07:39;24.60;80.40
13148;DHT22;6639;50.956;4.242;2022-07-29T04:10:08;24.60;80.20
13148;DHT22;6639;50.956;4.242;2022-07-29T04:12:35;24.70;80.30
13148;DHT22;6639;50.956;4.242;2022-07-29T04:15:02;24.60;80.20
13148;DHT22;6639;50.956;4.242;2022-07-29T04:17:29;24.60;80.30
13148;DHT22;6639;50.956;4.242;2022-07-29T04:19:56;24.60;80.70
13148;DHT22;6639;50.956;4.242;2022-07-29T04:22:23;24.40;81.00
13148;DHT22;6639;50.956;4.242;2022-07-29T04:24:50;24.10;81.20
13148;DHT22;6639;50.956;4.242;2022-07-29T04:27:18;24.20;81.10
13148;DHT22;6639;50.956;4.242;2022-07-29T04:29:45;24.30;80.60
13148;DHT22;6639;50.956;4.242;2022-07-29T04:32:12;24.40;80.00
13148;DHT22;6639;50.956;4.242;2022-07-29T04:34:39;24.50;79.80
13148;DHT22;6639;50.956;4.242;2022-07-29T04:37:06;24.50;79.60
13148;DHT22;6639;50.956;4.242;2022-07-29T04:39:32;24.40;79.80
13148;DHT22;6639;50.956;4.242;2022-07-29T04:41:59;24.20;80.80
13148;DHT22;6639;50.956;4.242;2022-07-29T04:44:27;24.10;81.30
13148;DHT22;6639;50.956;4.242;2022-07-29T04:46:55;24.20;81.20
13148;DHT22;6639;50.956;4.242;2022-07-29T04:49:22;24.20;81.40
13148;DHT22;6639;50.956;4.242;2022-07-29T04:51:49;24.20;81.10
13148;DHT22;6639;50.956;4.242;2022-07-29T04:54:16;24.10;81.20
13148;DHT22;6639;50.956;4.242;2022-07-29T04:56:43;24.20;81.60
13148;DHT22;6639;50.956;4.242;2022-07-29T04:59:11;24.20;81.30
13148;DHT22;6639;50.956;4.242;2022-07-29T05:01:40;24.20;81.50
13148;DHT22;6639;50.956;4.242;2022-07-29T05:04:06;24.30;81.90
13148;DHT22;6639;50.956;4.242;2022-07-29T05:06:33;24.30;82.30
13148;DHT22;6639;50.956;4.242;2022-07-29T05:09:00;24.40;83.00
13148;DHT22;6639;50.956;4.242;2022-07-29T05:11:27;24.60;82.70
13148;DHT22;6639;50.956;4.242;2022-07-29T05:13:54;24.70;82.40
13148;DHT22;6639;50.956;4.242;2022-07-29T05:16:20;24.90;82.00
13148;DHT22;6639;50.956;4.242;2022-07-29T05:18:49;25.00;81.60
13148;DHT22;6639;50.956;4.242;2022-07-29T05:21:16;25.20;81.40
13148;DHT22;6639;50.956;4.242;2022-07-29T05:23:43;25.40;81.20
13148;DHT22;6639;50.956;4.242;2022-07-29T05:26:09;25.50;81.30
13148;DHT22;6639;50.956;4.242;2022-07-29T05:28:37;25.70;81.20
13148;DHT22;6639;50.956;4.242;2022-07-29T05:31:04;25.90;80.60
13148;DHT22;6639;50.956;4.242;2022-07-29T05:33:31;26.20;80.70
13148;DHT22;6639;50.956;4.242;2022-07-29T05:35:59;26.40;79.70
13148;DHT22;6639;50.956;4.242;2022-07-29T05:38:26;26.60;79.50
13148;DHT22;6639;50.956;4.242;2022-07-29T05:40:55;26.80;79.50
13148;DHT22;6639;50.956;4.242;2022-07-29T05:43:22;27.00;78.30
13148;DHT22;6639;50.956;4.242;2022-07-29T05:45:49;27.10;78.10
13148;DHT22;6639;50.956;4.242;2022-07-29T05:48:16;27.20;77.70
13148;DHT22;6639;50.956;4.242;2022-07-29T05:50:43;27.30;78.50
13148;DHT22;6639;50.956;4.242;2022-07-29T05:53:11;27.40;78.00
13148;DHT22;6639;50.956;4.242;2022-07-29T05:55:38;27.50;78.00
13148;DHT22;6639;50.956;4.242;2022-07-29T05:58:04;27.20;77.50
13148;DHT22;6639;50.956;4.242;2022-07-29T06:00:31;27.20;77.50
13148;DHT22;6639;50.956;4.242;2022-07-29T06:02:58;27.10;77.70
13148;DHT22;6639;50.956;4.242;2022-07-29T06:05:25;27.00;78.30
13148;DHT22;6639;50.956;4.242;2022-07-29T06:07:52;27.10;78.80
13148;DHT22;6639;50.956;4.242;2022-07-29T06:10:20;27.10;78.30
13148;DHT22;6639;50.956;4.242;2022-07-29T06:12:47;27.40;78.60
13148;DHT22;6639;50.956;4.242;2022-07-29T06:15:14;27.60;78.80
13148;DHT22;6639;50.956;4.242;2022-07-29T06:17:41;27.70;77.70
13148;DHT22;6639;50.956;4.242;2022-07-29T06:20:09;27.90;77.40
13148;DHT22;6639;50.956;4.242;2022-07-29T06:22:36;28.00;77.30
13148;DHT22;6639;50.956;4.242;2022-07-29T06:25:04;28.10;76.90
13148;DHT22;6639;50.956;4.242;2022-07-29T06:27:32;27.90;76.50
13148;DHT22;6639;50.956;4.242;2022-07-29T06:29:59;27.90;76.60
13148;DHT22;6639;50.956;4.242;2022-07-29T06:32:27;28.20;77.00
13148;DHT22;6639;50.956;4.242;2022-07-29T06:34:54;28.00;76.00
13148;DHT22;6639;50.956;4.242;2022-07-29T06:37:20;27.60;76.70
13148;DHT22;6639;50.956;4.242;2022-07-29T06:39:48;27.70;77.20
13148;DHT22;6639;50.956;4.242;2022-07-29T06:42:36;28.00;77.10
13148;DHT22;6639;50.956;4.242;2022-07-29T06:45:03;28.10;76.70
13148;DHT22;6639;50.956;4.242;2022-07-29T06:47:30;28.10;77.20
13148;DHT22;6639;50.956;4.242;2022-07-29T06:49:57;27.80;78.70
13148;DHT22;6639;50.956;4.242;2022-07-29T06:52:24;27.10;78.30
13148;DHT22;6639;50.956;4.242;2022-07-29T06:54:51;27.20;79.70
13148;DHT22;6639;50.956;4.242;2022-07-29T06:57:18;27.80;78.80
13148;DHT22;6639;50.956;4.242;2022-07-29T06:59:46;28.10;79.20
13148;DHT22;6639;50.956;4.242;2022-07-29T07:02:13;28.30;77.70
13148;DHT22;6639;50.956;4.242;2022-07-29T07:04:40;28.30;77.20
13148;DHT22;6639;50.956;4.242;2022-07-29T07:07:07;28.40;78.00
13148;DHT22;6639;50.956;4.242;2022-07-29T07:09:34;28.60;78.10
13148;DHT22;6639;50.956;4.242;2022-07-29T07:12:01;28.60;77.50
13148;DHT22;6639;50.956;4.242;2022-07-29T07:14:28;28.40;77.10
13148;DHT22;6639;50.956;4.242;2022-07-29T07:16:56;28.70;78.00
13148;DHT22;6639;50.956;4.242;2022-07-29T07:19:23;28.80;79.10
13148;DHT22;6639;50.956;4.242;2022-07-29T07:21:50;29.30;77.20
13148;DHT22;6639;50.956;4.242;2022-07-29T07:24:16;29.70;75.80
13148;DHT22;6639;50.956;4.242;2022-07-29T07:26:43;30.00;75.50
13148;DHT22;6639;50.956;4.242;2022-07-29T07:29:10;30.40;74.50
13148;DHT22;6639;50.956;4.242;2022-07-29T07:31:38;30.70;74.00
13148;DHT22;6639;50.956;4.242;2022-07-29T07:34:06;31.20;74.40
13148;DHT22;6639;50.956;4.242;2022-07-29T07:36:33;31.60;72.90
13148;DHT22;6639;50.956;4.242;2022-07-29T07:39:00;31.90;71.50
13148;DHT22;6639;50.956;4.242;2022-07-29T07:41:27;32.30;72.30
13148;DHT22;6639;50.956;4.242;2022-07-29T07:43:54;32.40;70.90
13148;DHT22;6639;50.956;4.242;2022-07-29T07:46:21;32.80;71.60
13148;DHT22;6639;50.956;4.242;2022-07-29T07:48:48;32.40;69.70
13148;DHT22;6639;50.956;4.242;2022-07-29T07:51:16;33.00;70.50
13148;DHT22;6639;50.956;4.242;2022-07-29T07:53:43;33.10;70.50
13148;DHT22;6639;50.956;4.242;2022-07-29T07:56:10;33.50;69.70
13148;DHT22;6639;50.956;4.242;2022-07-29T07:58:37;33.60;70.10
13148;DHT22;6639;50.956;4.242;2022-07-29T08:01:04;33.80;69.50
13148;DHT22;6639;50.956;4.242;2022-07-29T08:03:32;34.10;68.30
13148;DHT22;6639;50.956;4.242;2022-07-29T08:05:59;34.40;68.00
13148;DHT22;6639;50.956;4.242;2022-07-29T08:08:27;34.10;68.80
13148;DHT22;6639;50.956;4.242;2022-07-29T08:10:54;34.70;68.20
13148;DHT22;6639;50.956;4.242;2022-07-29T08:13:23;35.10;67.90
13148;DHT22;6639;50.956;4.242;2022-07-29T08:15:52;35.30;65.80
13148;DHT22;6639;50.956;4.242;2022-07-29T08:18:24;35.30;67.20
13148;DHT22;6639;50.956;4.242;2022-07-29T08:20:51;35.50;65.80
13148;DHT22;6639;50.956;4.242;2022-07-29T08:23:18;35.60;66.20
13148;DHT22;6639;50.956;4.242;2022-07-29T08:25:47;36.00;66.60
13148;DHT22;6639;50.956;4.242;2022-07-29T08:28:14;36.00;65.60
13148;DHT22;6639;50.956;4.242;2022-07-29T08:30:41;36.00;66.70
13148;DHT22;6639;50.956;4.242;2022-07-29T08:33:08;36.20;66.50
13148;DHT22;6639;50.956;4.242;2022-07-29T08:35:34;36.30;65.30
13148;DHT22;6639;50.956;4.242;2022-07-29T08:38:01;36.10;66.00
13148;DHT22;6639;50.956;4.242;2022-07-29T08:40:29;36.10;65.20
13148;DHT22;6639;50.956;4.242;2022-07-29T08:42:57;36.00;66.20
13148;DHT22;6639;50.956;4.242;2022-07-29T08:45:25;36.30;66.00
13148;DHT22;6639;50.956;4.242;2022-07-29T08:47:53;36.20;65.90
13148;DHT22;6639;50.956;4.242;2022-07-29T08:50:20;35.60;65.80
13148;DHT22;6639;50.956;4.242;2022-07-29T08:52:47;35.70;65.60
13148;DHT22;6639;50.956;4.242;2022-07-29T08:55:15;35.20;66.10
13148;DHT22;6639;50.956;4.242;2022-07-29T08:57:43;35.60;67.30
13148;DHT22;6639;50.956;4.242;2022-07-29T09:00:12;35.40;66.00
13148;DHT22;6639;50.956;4.242;2022-07-29T09:02:41;35.50;65.90
13148;DHT22;6639;50.956;4.242;2022-07-29T09:05:09;35.60;66.00
13148;DHT22;6639;50.956;4.242;2022-07-29T09:07:38;35.50;66.30
13148;DHT22;6639;50.956;4.242;2022-07-29T09:10:08;35.40;65.70
13148;DHT22;6639;50.956;4.242;2022-07-29T09:12:35;35.50;64.50
13148;DHT22;6639;50.956;4.242;2022-07-29T09:15:03;35.50;64.10
13148;DHT22;6639;50.956;4.242;2022-07-29T09:17:41;34.60;64.40
13148;DHT22;6639;50.956;4.242;2022-07-29T09:20:09;34.10;65.30
13148;DHT22;6639;50.956;4.242;2022-07-29T09:22:36;34.50;66.50
13148;DHT22;6639;50.956;4.242;2022-07-29T09:25:03;34.90;66.80
13148;DHT22;6639;50.956;4.242;2022-07-29T09:27:30;35.10;66.10
13148;DHT22;6639;50.956;4.242;2022-07-29T09:30:00;35.20;64.70
13148;DHT22;6639;50.956;4.242;2022-07-29T09:32:27;35.70;64.00
13148;DHT22;6639;50.956;4.242;2022-07-29T09:35:20;36.20;64.00
13148;DHT22;6639;50.956;4.242;2022-07-29T09:37:48;36.00;63.50
13148;DHT22;6639;50.956;4.242;2022-07-29T09:40:17;36.50;63.00
13148;DHT22;6639;50.956;4.242;2022-07-29T09:42:45;36.00;61.70
13148;DHT22;6639;50.956;4.242;2022-07-29T09:45:12;34.80;62.90
13148;DHT22;6639;50.956;4.242;2022-07-29T09:47:44;35.30;64.90
13148;DHT22;6639;50.956;4.242;2022-07-29T09:50:12;34.60;63.10
13148;DHT22;6639;50.956;4.242;2022-07-29T09:52:49;34.80;64.60
13148;DHT22;6639;50.956;4.242;2022-07-29T09:55:17;34.90;65.30
13148;DHT22;6639;50.956;4.242;2022-07-29T09:57:45;35.20;66.20
13148;DHT22;6639;50.956;4.242;2022-07-29T10:00:13;35.80;64.10
13148;DHT22;6639;50.956;4.242;2022-07-29T10:02:42;36.00;63.30
13148;DHT22;6639;50.956;4.242;2022-07-29T10:05:20;36.20;62.10
13148;DHT22;6639;50.956;4.242;2022-07-29T10:07:51;35.30;63.30
13148;DHT22;6639;50.956;4.242;2022-07-29T10:10:23;34.50;63.10
13148;DHT22;6639;50.956;4.242;2022-07-29T10:12:52;35.30;62.70
13148;DHT22;6639;50.956;4.242;2022-07-29T10:15:22;35.40;63.20
13148;DHT22;6639;50.956;4.242;2022-07-29T10:17:49;35.50;64.60
13148;DHT22;6639;50.956;4.242;2022-07-29T10:20:17;35.70;63.30
13148;DHT22;6639;50.956;4.242;2022-07-29T10:22:44;35.70;62.00
13148;DHT22;6639;50.956;4.242;2022-07-29T10:25:14;35.50;62.70
13148;DHT22;6639;50.956;4.242;2022-07-29T10:27:42;35.70;62.30
13148;DHT22;6639;50.956;4.242;2022-07-29T10:30:13;36.00;63.10
13148;DHT22;6639;50.956;4.242;2022-07-29T10:35:54;35.10;61.50
13148;DHT22;6639;50.956;4.242;2022-07-29T10:38:49;35.90;62.40
13148;DHT22;6639;50.956;4.242;2022-07-29T10:41:43;35.90;60.20
13148;DHT22;6639;50.956;4.242;2022-07-29T10:44:18;36.50;62.10
13148;DHT22;6639;50.956;4.242;2022-07-29T10:46:46;36.10;60.10
13148;DHT22;6639;50.956;4.242;2022-07-29T10:49:15;36.50;59.70
13148;DHT22;6639;50.956;4.242;2022-07-29T10:52:04;36.80;61.10
13148;DHT22;6639;50.956;4.242;2022-07-29T10:54:48;36.00;58.80
13148;DHT22;6639;50.956;4.242;2022-07-29T10:57:21;36.00;59.90
13148;DHT22;6639;50.956;4.242;2022-07-29T10:59:49;36.50;59.80
13148;DHT22;6639;50.956;4.242;2022-07-29T11:02:42;37.00;59.20
13148;DHT22;6639;50.956;4.242;2022-07-29T11:05:11;36.20;57.00
13148;DHT22;6639;50.956;4.242;2022-07-29T11:07:40;35.80;58.50
13148;DHT22;6639;50.956;4.242;2022-07-29T11:10:26;36.00;59.30
13148;DHT22;6639;50.956;4.242;2022-07-29T11:12:54;36.50;58.90
13148;DHT22;6639;50.956;4.242;2022-07-29T11:15:22;35.50;59.20
13148;DHT22;6639;50.956;4.242;2022-07-29T11:18:08;36.20;59.50
13148;DHT22;6639;50.956;4.242;2022-07-29T11:20:37;36.00;59.30
13148;DHT22;6639;50.956;4.242;2022-07-29T11:23:23;36.40;59.00
13148;DHT22;6639;50.956;4.242;2022-07-29T11:26:13;36.30;57.60
13148;DHT22;6639;50.956;4.242;2022-07-29T11:28:58;36.10;58.90
13148;DHT22;6639;50.956;4.242;2022-07-29T11:31:35;35.90;56.60
13148;DHT22;6639;50.956;4.242;2022-07-29T11:34:16;36.20;59.00
13148;DHT22;6639;50.956;4.242;2022-07-29T11:37:17;37.00;59.40
13148;DHT22;6639;50.956;4.242;2022-07-29T11:39:46;37.50;57.30
13148;DHT22;6639;50.956;4.242;2022-07-29T11:45:25;36.80;57.40
13148;DHT22;6639;50.956;4.242;2022-07-29T11:47:58;36.80;56.20
13148;DHT22;6639;50.956;4.242;2022-07-29T11:50:31;36.00;55.50
13148;DHT22;6639;50.956;4.242;2022-07-29T11:52:58;35.00;56.80
13148;DHT22;6639;50.956;4.242;2022-07-29T11:55:25;35.00;57.70
13148;DHT22;6639;50.956;4.242;2022-07-29T11:57:53;35.60;58.30
13148;DHT22;6639;50.956;4.242;2022-07-29T12:00:27;36.00;57.80
13148;DHT22;6639;50.956;4.242;2022-07-29T12:02:55;36.00;58.20
13148;DHT22;6639;50.956;4.242;2022-07-29T12:05:34;36.10;58.00
13148;DHT22;6639;50.956;4.242;2022-07-29T12:08:12;35.80;57.20
13148;DHT22;6639;50.956;4.242;2022-07-29T12:10:40;35.80;56.80
13148;DHT22;6639;50.956;4.242;2022-07-29T12:13:10;36.00;56.90
13148;DHT22;6639;50.956;4.242;2022-07-29T12:15:39;36.00;55.70
13148;DHT22;6639;50.956;4.242;2022-07-29T12:18:14;35.90;57.40
13148;DHT22;6639;50.956;4.242;2022-07-29T12:20:41;36.00;57.70
13148;DHT22;6639;50.956;4.242;2022-07-29T12:23:09;36.70;55.80
13148;DHT22;6639;50.956;4.242;2022-07-29T12:25:41;36.80;55.80
13148;DHT22;6639;50.956;4.242;2022-07-29T12:28:09;36.40;56.00
13148;DHT22;6639;50.956;4.242;2022-07-29T12:30:41;36.00;55.70
13148;DHT22;6639;50.956;4.242;2022-07-29T12:33:13;35.70;56.50
13148;DHT22;6639;50.956;4.242;2022-07-29T12:35:41;36.10;55.70
13148;DHT22;6639;50.956;4.242;2022-07-29T12:38:10;36.40;55.10
13148;DHT22;6639;50.956;4.242;2022-07-29T12:40:37;37.10;55.10
13148;DHT22;6639;50.956;4.242;2022-07-29T12:43:06;37.30;55.50
13148;DHT22;6639;50.956;4.242;2022-07-29T12:45:35;37.00;55.30
13148;DHT22;6639;50.956;4.242;2022-07-29T12:48:04;36.90;55.00
13148;DHT22;6639;50.956;4.242;2022-07-29T12:50:34;36.30;56.00
13148;DHT22;6639;50.956;4.242;2022-07-29T12:53:11;35.50;56.20
13148;DHT22;6639;50.956;4.242;2022-07-29T12:55:42;35.60;56.40
13148;DHT22;6639;50.956;4.242;2022-07-29T12:58:10;35.00;56.40
13148;DHT22;6639;50.956;4.242;2022-07-29T13:00:37;34.90;57.50
13148;DHT22;6639;50.956;4.242;2022-07-29T13:03:05;35.20;57.90
13148;DHT22;6639;50.956;4.242;2022-07-29T13:05:43;34.90;57.50
13148;DHT22;6639;50.956;4.242;2022-07-29T13:08:14;35.10;56.90
13148;DHT22;6639;50.956;4.242;2022-07-29T13:10:41;35.10;57.00
13148;DHT22;6639;50.956;4.242;2022-07-29T13:13:10;35.10;57.70
13148;DHT22;6639;50.956;4.242;2022-07-29T13:15:38;35.20;57.90
13148;DHT22;6639;50.956;4.242;2022-07-29T13:18:26;35.30;56.90
13148;DHT22;6639;50.956;4.242;2022-07-29T13:20:53;35.10;57.20
13148;DHT22;6639;50.956;4.242;2022-07-29T13:23:21;34.90;56.30
13148;DHT22;6639;50.956;4.242;2022-07-29T13:25:48;34.20;57.90
13148;DHT22;6639;50.956;4.242;2022-07-29T13:28:14;34.90;57.70
13148;DHT22;6639;50.956;4.242;2022-07-29T13:30:42;34.30;58.10
13148;DHT22;6639;50.956;4.242;2022-07-29T13:33:10;34.60;58.10
13148;DHT22;6639;50.956;4.242;2022-07-29T13:35:37;35.00;58.10
13148;DHT22;6639;50.956;4.242;2022-07-29T13:38:04;35.10;57.60
13148;DHT22;6639;50.956;4.242;2022-07-29T13:40:31;34.70;56.80
13148;DHT22;6639;50.956;4.242;2022-07-29T13:43:00;35.30;57.50
13148;DHT22;6639;50.956;4.242;2022-07-29T13:45:27;34.70;56.50
13148;DHT22;6639;50.956;4.242;2022-07-29T13:47:54;35.10;57.50
13148;DHT22;6639;50.956;4.242;2022-07-29T13:50:23;35.40;58.00
13148;DHT22;6639;50.956;4.242;2022-07-29T13:52:49;35.70;57.90
13148;DHT22;6639;50.956;4.242;2022-07-29T13:55:16;35.50;57.40
13148;DHT22;6639;50.956;4.242;2022-07-29T13:57:43;35.50;56.80
13148;DHT22;6639;50.956;4.242;2022-07-29T14:00:11;34.30;57.90
13148;DHT22;6639;50.956;4.242;2022-07-29T14:02:38;35.20;57.90
13148;DHT22;6639;50.956;4.242;2022-07-29T14:05:06;35.20;57.60
13148;DHT22;6639;50.956;4.242;2022-07-29T14:07:34;35.50;58.00
13148;DHT22;6639;50.956;4.242;2022-07-29T14:10:02;35.60;58.70
13148;DHT22;6639;50.956;4.242;2022-07-29T14:12:29;36.00;57.90
13148;DHT22;6639;50.956;4.242;2022-07-29T14:14:56;36.10;57.60
13148;DHT22;6639;50.956;4.242;2022-07-29T14:17:23;36.20;57.00
13148;DHT22;6639;50.956;4.242;2022-07-29T14:19:50;36.20;57.70
13148;DHT22;6639;50.956;4.242;2022-07-29T14:22:16;36.10;57.50
13148;DHT22;6639;50.956;4.242;2022-07-29T14:24:45;35.60;56.90
13148;DHT22;6639;50.956;4.242;2022-07-29T14:27:12;35.90;57.20
13148;DHT22;6639;50.956;4.242;2022-07-29T14:29:39;36.00;57.00
13148;DHT22;6639;50.956;4.242;2022-07-29T14:32:06;36.20;57.10
13148;DHT22;6639;50.956;4.242;2022-07-29T14:34:34;36.00;56.50
13148;DHT22;6639;50.956;4.242;2022-07-29T14:37:01;35.70;57.20
13148;DHT22;6639;50.956;4.242;2022-07-29T14:39:30;36.10;56.80
13148;DHT22;6639;50.956;4.242;2022-07-29T14:41:58;36.60;55.60
13148;DHT22;6639;50.956;4.242;2022-07-29T14:44:25;36.60;56.10
13148;DHT22;6639;50.956;4.242;2022-07-29T14:46:56;36.40;56.00
13148;DHT22;6639;50.956;4.242;2022-07-29T14:49:23;36.20;54.70
13148;DHT22;6639;50.956;4.242;2022-07-29T14:51:50;34.80;55.80
13148;DHT22;6639;50.956;4.242;2022-07-29T14:54:17;34.20;57.00
13148;DHT22;6639;50.956;4.242;2022-07-29T14:56:43;34.50;56.70
13148;DHT22;6639;50.956;4.242;2022-07-29T14:59:12;35.00;56.10
13148;DHT22;6639;50.956;4.242;2022-07-29T15:01:39;35.20;56.20
13148;DHT22;6639;50.956;4.242;2022-07-29T15:04:05;35.20;56.10
13148;DHT22;6639;50.956;4.242;2022-07-29T15:06:32;35.20;56.10
13148;DHT22;6639;50.956;4.242;2022-07-29T15:08:59;34.50;55.70
13148;DHT22;6639;50.956;4.242;2022-07-29T15:11:26;34.00;57.40
13148;DHT22;6639;50.956;4.242;2022-07-29T15:13:53;34.60;56.90
13148;DHT22;6639;50.956;4.242;2022-07-29T15:16:21;35.00;57.50
13148;DHT22;6639;50.956;4.242;2022-07-29T15:18:48;35.10;57.20
13148;DHT22;6639;50.956;4.242;2022-07-29T15:21:15;35.20;57.20
13148;DHT22;6639;50.956;4.242;2022-07-29T15:23:42;34.90;57.00
13148;DHT22;6639;50.956;4.242;2022-07-29T15:26:09;34.70;57.00
13148;DHT22;6639;50.956;4.242;2022-07-29T15:28:36;34.60;57.30
13148;DHT22;6639;50.956;4.242;2022-07-29T15:31:03;34.70;57.80
13148;DHT22;6639;50.956;4.242;2022-07-29T15:33:31;34.70;57.50
13148;DHT22;6639;50.956;4.242;2022-07-29T15:35:58;34.80;58.10
13148;DHT22;6639;50.956;4.242;2022-07-29T15:38:25;34.90;57.60
13148;DHT22;6639;50.956;4.242;2022-07-29T15:40:52;34.60;58.00
13148;DHT22;6639;50.956;4.242;2022-07-29T15:43:19;34.60;57.70
13148;DHT22;6639;50.956;4.242;2022-07-29T15:45:46;35.00;58.00
13148;DHT22;6639;50.956;4.242;2022-07-29T15:48:26;35.00;57.00
13148;DHT22;6639;50.956;4.242;2022-07-29T15:50:55;35.00;57.60
13148;DHT22;6639;50.956;4.242;2022-07-29T15:53:21;35.10;57.60
13148;DHT22;6639;50.956;4.242;2022-07-29T15:55:48;35.10;57.60
13148;DHT22;6639;50.956;4.242;2022-07-29T15:58:15;35.10;57.20
13148;DHT22;6639;50.956;4.242;2022-07-29T16:00:42;35.40;57.20
13148;DHT22;6639;50.956;4.242;2022-07-29T16:03:09;35.20;56.70